Time;durP1;ratioP1;P1;durP2;ratioP2;P2;SDS_P1;SDS_P2;PMS_P1;PMS_P2;Temp;Humidity;BMP_temperature;BMP_pressure;BME280_temperature;BME280_humidity;BME280_pressure;Samples;Min_cycle;Max_cycle;Signal;HPM_P1;HPM_P2
2023/07/28 00:00:08;;;;;;;;;;;18.20;78.00;;;;;;4969892;28;19918;-76
2023/07/28 00:02:34;;;;;;;;;;;18.20;78.00;;;;;;4984808;28;19973;-76
2023/07/28 00:04:59;;;;;;;;;;;18.20;78.00;;;;;;4969783;28;19915;-76
2023/07/28 00:07:25;;;;;;;;;;;18.20;78.00;;;;;;4969249;28;20394;-76
2023/07/28 00:09:50;;;;;;;;;;;18.20;77.90;;;;;;4969749;28;19911;-76
2023/07/28 00:12:16;;;;;;;;;;;18.20;77.90;;;;;;4969668;28;20378;-76
2023/07/28 00:14:41;;;;;;;;;;;18.10;77.90;;;;;;4969519;28;19914;-76
2023/07/28 00:17:07;;;;;;;;;;;18.10;78.00;;;;;;4969617;28;19914;-76
2023/07/28 00:19:32;;;;;;;;;;;18.10;78.00;;;;;;4984556;28;19941;-76
2023/07/28 00:21:58;;;;;;;;;;;18.20;78.00;;;;;;4969558;28;20001;-76
2023/07/28 00:24:23;;;;;;;;;;;18.20;78.00;;;;;;4969432;28;19913;-76
2023/07/28 00:26:49;;;;;;;;;;;18.20;78.00;;;;;;4969414;28;19918;-76
2023/07/28 00:29:15;;;;;;;;;;;18.20;77.90;;;;;;4969153;28;20306;-76
2023/07/28 00:31:40;;;;;;;;;;;18.20;77.90;;;;;;4969379;28;20330;-76
2023/07/28 00:34:06;;;;;;;;;;;18.20;77.90;;;;;;4968243;28;19915;-76
2023/07/28 00:36:31;;;;;;;;;;;18.20;77.90;;;;;;4969448;28;20300;-76
2023/07/28 00:38:57;;;;;;;;;;;18.20;77.90;;;;;;4969276;28;19914;-76
2023/07/28 00:41:23;;;;;;;;;;;18.20;77.90;;;;;;4969329;28;20078;-76
2023/07/28 00:43:48;;;;;;;;;;;18.20;77.90;;;;;;4969190;28;19972;-76
2023/07/28 00:46:14;;;;;;;;;;;18.20;77.90;;;;;;4951814;28;20296;-76
2023/07/28 00:48:40;;;;;;;;;;;18.20;77.90;;;;;;4984126;28;19949;-76
2023/07/28 00:51:07;;;;;;;;;;;18.20;77.90;;;;;;4969166;28;19949;-76
2023/07/28 00:53:32;;;;;;;;;;;18.20;77.90;;;;;;4969155;28;19914;-76
2023/07/28 00:55:58;;;;;;;;;;;18.20;77.90;;;;;;4969571;28;19972;-76
2023/07/28 00:58:24;;;;;;;;;;;18.20;78.00;;;;;;4969119;28;20000;-76
2023/07/28 01:00:49;;;;;;;;;;;18.20;77.90;;;;;;4969081;28;19910;-75
2023/07/28 01:03:15;;;;;;;;;;;18.20;77.90;;;;;;4983973;28;19914;-76
2023/07/28 01:05:49;;;;;;;;;;;18.20;78.00;;;;;;4968993;28;19957;-76
2023/07/28 01:08:30;;;;;;;;;;;18.20;78.10;;;;;;4969083;28;19914;-76
2023/07/28 01:10:56;;;;;;;;;;;18.20;78.00;;;;;;4969069;28;19915;-76
2023/07/28 01:13:21;;;;;;;;;;;18.20;78.00;;;;;;4968833;28;19988;-76
2023/07/28 01:15:47;;;;;;;;;;;18.20;77.90;;;;;;4983786;28;19956;-75
2023/07/28 01:18:12;;;;;;;;;;;18.20;77.90;;;;;;4971341;28;20326;-76
2023/07/28 01:20:39;;;;;;;;;;;18.20;77.90;;;;;;4987778;28;19921;-76
2023/07/28 01:23:18;;;;;;;;;;;18.20;77.90;;;;;;4973059;28;19922;-76
2023/07/28 01:25:55;;;;;;;;;;;18.20;77.90;;;;;;4972678;28;19914;-76
2023/07/28 01:28:21;;;;;;;;;;;18.20;77.90;;;;;;4972657;28;20008;-76
2023/07/28 01:30:47;;;;;;;;;;;18.20;77.90;;;;;;4972539;28;20009;-75
2023/07/28 01:33:12;;;;;;;;;;;18.20;78.00;;;;;;4973290;28;20002;-76
2023/07/28 01:35:38;;;;;;;;;;;18.10;78.00;;;;;;4972613;28;20419;-76
2023/07/28 01:38:04;;;;;;;;;;;18.20;78.00;;;;;;4972774;28;20393;-76
2023/07/28 01:40:29;;;;;;;;;;;18.10;77.90;;;;;;4972623;28;19986;-76
2023/07/28 01:42:55;;;;;;;;;;;18.10;77.90;;;;;;4972413;28;19914;-76
2023/07/28 01:45:21;;;;;;;;;;;18.10;78.00;;;;;;4972364;28;19968;-76
2023/07/28 01:47:46;;;;;;;;;;;18.10;77.90;;;;;;4987359;28;20056;-76
2023/07/28 01:50:12;;;;;;;;;;;18.00;77.90;;;;;;4972644;28;19915;-75
2023/07/28 01:52:37;;;;;;;;;;;18.00;78.00;;;;;;4972565;28;20012;-75
2023/07/28 01:55:03;;;;;;;;;;;18.00;78.00;;;;;;4972292;28;19922;-76
2023/07/28 01:57:32;;;;;;;;;;;18.00;78.00;;;;;;4987180;28;19915;-76
2023/07/28 01:59:57;;;;;;;;;;;18.00;78.00;;;;;;4972171;28;19914;-76
2023/07/28 02:02:23;;;;;;;;;;;18.00;78.00;;;;;;4972378;28;19993;-76
2023/07/28 02:04:48;;;;;;;;;;;18.00;78.00;;;;;;4972031;28;19925;-75
2023/07/28 02:07:14;;;;;;;;;;;18.00;78.00;;;;;;4971941;28;20029;-76
2023/07/28 02:09:39;;;;;;;;;;;18.00;77.90;;;;;;4972006;28;19926;-76
2023/07/28 02:12:05;;;;;;;;;;;18.00;77.90;;;;;;4986802;28;19924;-75
2023/07/28 02:14:31;;;;;;;;;;;18.00;78.00;;;;;;4971881;28;19953;-76
2023/07/28 02:16:56;;;;;;;;;;;17.90;78.00;;;;;;4986851;28;20359;-76
2023/07/28 02:19:22;;;;;;;;;;;17.90;78.00;;;;;;4971872;28;19937;-75
2023/07/28 02:21:47;;;;;;;;;;;17.90;78.00;;;;;;4971783;28;19919;-76
2023/07/28 02:24:13;;;;;;;;;;;17.90;78.00;;;;;;4971648;28;20008;-75
2023/07/28 02:26:38;;;;;;;;;;;17.90;78.00;;;;;;4971606;28;19981;-76
2023/07/28 02:29:04;;;;;;;;;;;17.90;78.00;;;;;;4970817;28;19930;-75
2023/07/28 02:31:30;;;;;;;;;;;17.90;78.00;;;;;;4986625;28;19946;-76
2023/07/28 02:33:55;;;;;;;;;;;17.90;78.00;;;;;;4971474;28;20276;-75
2023/07/28 02:36:21;;;;;;;;;;;17.90;78.00;;;;;;4971558;28;19922;-76
2023/07/28 02:38:46;;;;;;;;;;;17.90;78.00;;;;;;4986447;28;19914;-76
2023/07/28 02:41:12;;;;;;;;;;;17.90;77.90;;;;;;4986197;28;19925;-76
2023/07/28 02:43:37;;;;;;;;;;;17.90;77.90;;;;;;4971425;28;20350;-75
2023/07/28 02:46:03;;;;;;;;;;;17.90;77.90;;;;;;4971329;28;19986;-76
2023/07/28 02:48:28;;;;;;;;;;;17.90;77.90;;;;;;4953919;28;19910;-76
2023/07/28 02:50:54;;;;;;;;;;;17.90;77.90;;;;;;4971224;28;19999;-76
2023/07/28 02:53:20;;;;;;;;;;;17.90;77.90;;;;;;4971218;28;19914;-76
2023/07/28 02:55:46;;;;;;;;;;;17.80;77.90;;;;;;4971167;28;19941;-76
2023/07/28 02:58:12;;;;;;;;;;;17.80;77.90;;;;;;4971099;28;20604;-76
2023/07/28 03:00:38;;;;;;;;;;;17.80;77.90;;;;;;4971285;28;19914;-76
2023/07/28 03:03:05;;;;;;;;;;;17.80;77.90;;;;;;4953553;28;19914;-76
2023/07/28 03:05:33;;;;;;;;;;;17.80;78.40;;;;;;4970918;28;19917;-76
2023/07/28 03:07:59;;;;;;;;;;;17.70;77.90;;;;;;4971029;28;19914;-76
2023/07/28 03:10:25;;;;;;;;;;;17.70;77.90;;;;;;4971205;28;20274;-76
2023/07/28 03:12:50;;;;;;;;;;;17.70;77.90;;;;;;4971451;28;19914;-76
2023/07/28 03:15:16;;;;;;;;;;;17.70;77.90;;;;;;4970891;28;19914;-76
2023/07/28 03:17:41;;;;;;;;;;;17.70;78.00;;;;;;4970771;28;20318;-76
2023/07/28 03:20:07;;;;;;;;;;;17.60;78.00;;;;;;4970786;28;19914;-76
2023/07/28 03:22:33;;;;;;;;;;;17.70;78.10;;;;;;4970673;28;19910;-76
2023/07/28 03:24:58;;;;;;;;;;;17.70;78.00;;;;;;4970590;28;20410;-76
2023/07/28 03:27:24;;;;;;;;;;;17.70;78.00;;;;;;4970678;28;19918;-76
2023/07/28 03:29:50;;;;;;;;;;;17.70;78.00;;;;;;4970404;28;20344;-76
2023/07/28 03:32:16;;;;;;;;;;;17.70;78.00;;;;;;4970501;28;19926;-76
2023/07/28 03:34:41;;;;;;;;;;;17.70;78.00;;;;;;4970404;28;19914;-76
2023/07/28 03:37:07;;;;;;;;;;;17.70;78.00;;;;;;4970340;28;20433;-76
2023/07/28 03:39:32;;;;;;;;;;;17.70;78.00;;;;;;4985255;28;20012;-76
2023/07/28 03:41:58;;;;;;;;;;;17.70;77.90;;;;;;4969680;28;19918;-76
2023/07/28 03:44:24;;;;;;;;;;;17.70;77.90;;;;;;4971179;28;20322;-76
2023/07/28 03:46:49;;;;;;;;;;;17.70;77.90;;;;;;4970538;28;19919;-76
2023/07/28 03:49:15;;;;;;;;;;;17.70;77.90;;;;;;4985081;28;19921;-75
2023/07/28 03:51:40;;;;;;;;;;;17.70;78.00;;;;;;4970020;28;20104;-76
2023/07/28 03:54:06;;;;;;;;;;;17.70;78.00;;;;;;4969798;28;20260;-76
2023/07/28 03:56:31;;;;;;;;;;;17.70;78.00;;;;;;4969879;28;20413;-76
2023/07/28 03:58:57;;;;;;;;;;;17.70;78.00;;;;;;4969871;28;20305;-76
2023/07/28 04:01:30;;;;;;;;;;;17.70;78.00;;;;;;5105496;27;20398;-76
2023/07/28 04:03:55;;;;;;;;;;;17.70;78.00;;;;;;5105548;28;19920;-77
2023/07/28 04:06:38;;;;;;;;;;;17.70;78.00;;;;;;5105578;28;19919;-77
2023/07/28 04:09:04;;;;;;;;;;;17.70;78.00;;;;;;5105319;28;19990;-76
2023/07/28 04:11:29;;;;;;;;;;;17.70;78.00;;;;;;5104155;28;20014;-77
2023/07/28 04:13:55;;;;;;;;;;;17.70;78.00;;;;;;5105638;28;19916;-77
2023/07/28 04:16:20;;;;;;;;;;;17.70;78.00;;;;;;5105399;28;19920;-77
2023/07/28 04:18:46;;;;;;;;;;;17.70;78.00;;;;;;5105337;28;19918;-77
2023/07/28 04:21:11;;;;;;;;;;;17.70;78.10;;;;;;5105159;28;19980;-77
2023/07/28 04:23:37;;;;;;;;;;;17.70;78.10;;;;;;5105511;28;19919;-77
2023/07/28 04:26:02;;;;;;;;;;;17.70;78.00;;;;;;5103898;28;19938;-77
2023/07/28 04:28:28;;;;;;;;;;;17.70;78.00;;;;;;5105110;28;20007;-77
2023/07/28 04:30:53;;;;;;;;;;;17.60;78.00;;;;;;5105046;28;19919;-77
2023/07/28 04:33:19;;;;;;;;;;;17.60;78.00;;;;;;5105124;28;19923;-77
2023/07/28 04:35:44;;;;;;;;;;;17.60;78.00;;;;;;5105081;28;20345;-76
2023/07/28 04:38:10;;;;;;;;;;;17.60;78.00;;;;;;5105013;28;20397;-77
2023/07/28 04:40:35;;;;;;;;;;;17.60;78.10;;;;;;5104874;28;19916;-77
2023/07/28 04:43:01;;;;;;;;;;;17.60;78.10;;;;;;5104955;28;19927;-77
2023/07/28 04:45:27;;;;;;;;;;;17.60;78.10;;;;;;5104878;28;20035;-77
2023/07/28 04:47:52;;;;;;;;;;;17.60;78.00;;;;;;5104708;28;20081;-77
2023/07/28 04:50:18;;;;;;;;;;;17.60;78.00;;;;;;5105814;28;19977;-77
2023/07/28 04:52:44;;;;;;;;;;;17.60;78.10;;;;;;5104664;28;20325;-77
2023/07/28 04:55:09;;;;;;;;;;;17.60;78.00;;;;;;5104688;28;19919;-77
2023/07/28 04:57:35;;;;;;;;;;;17.60;78.00;;;;;;5103560;28;20015;-77
2023/07/28 05:00:00;;;;;;;;;;;17.60;78.10;;;;;;5104073;28;20379;-77
2023/07/28 05:02:26;;;;;;;;;;;17.60;78.10;;;;;;5104626;28;19965;-77
2023/07/28 05:04:51;;;;;;;;;;;17.60;78.10;;;;;;5103171;28;19920;-77
2023/07/28 05:07:17;;;;;;;;;;;17.70;78.10;;;;;;5103190;28;20318;-77
2023/07/28 05:09:44;;;;;;;;;;;17.60;78.10;;;;;;5104316;28;19920;-77
2023/07/28 05:12:10;;;;;;;;;;;17.70;78.10;;;;;;5094565;28;19919;-77
2023/07/28 05:14:35;;;;;;;;;;;17.60;78.00;;;;;;5090781;28;19916;-77
2023/07/28 05:17:01;;;;;;;;;;;17.70;78.10;;;;;;5090601;28;19960;-76
2023/07/28 05:19:26;;;;;;;;;;;17.60;78.00;;;;;;5090350;28;19923;-77
2023/07/28 05:21:52;;;;;;;;;;;17.70;78.00;;;;;;5090505;28;19990;-77
2023/07/28 05:24:17;;;;;;;;;;;17.70;78.10;;;;;;5090640;28;20411;-77
2023/07/28 05:26:43;;;;;;;;;;;17.70;78.10;;;;;;5090599;28;20265;-77
2023/07/28 05:29:09;;;;;;;;;;;17.70;78.10;;;;;;5090389;28;19973;-77
2023/07/28 05:31:34;;;;;;;;;;;17.80;78.20;;;;;;5090520;28;20404;-77
2023/07/28 05:34:00;;;;;;;;;;;17.80;78.10;;;;;;5090352;28;19957;-77
2023/07/28 05:36:25;;;;;;;;;;;17.80;78.00;;;;;;5089077;28;19942;-77
2023/07/28 05:38:53;;;;;;;;;;;17.90;78.60;;;;;;5090252;28;20388;-77
2023/07/28 05:41:19;;;;;;;;;;;17.90;78.20;;;;;;5090037;28;19920;-76
2023/07/28 05:43:45;;;;;;;;;;;18.00;78.10;;;;;;5090204;28;19950;-76
2023/07/28 05:46:10;;;;;;;;;;;18.00;78.20;;;;;;5090118;28;20008;-68
2023/07/28 05:48:36;;;;;;;;;;;18.10;78.10;;;;;;5089824;28;20015;-69
2023/07/28 05:51:01;;;;;;;;;;;18.10;78.00;;;;;;5089839;28;19982;-68
2023/07/28 05:53:27;;;;;;;;;;;18.20;78.00;;;;;;5089934;28;20425;-77
2023/07/28 05:55:53;;;;;;;;;;;18.10;77.90;;;;;;5089934;28;20280;-77
2023/07/28 05:58:19;;;;;;;;;;;18.10;77.90;;;;;;5089819;28;19912;-76
2023/07/28 06:00:44;;;;;;;;;;;18.10;78.00;;;;;;5089164;28;19974;-76
2023/07/28 06:03:11;;;;;;;;;;;18.10;78.10;;;;;;5089737;28;20368;-77
2023/07/28 06:05:38;;;;;;;;;;;18.00;78.00;;;;;;5089517;28;20426;-77
2023/07/28 06:08:03;;;;;;;;;;;18.10;78.00;;;;;;5089478;28;19962;-77
2023/07/28 06:10:29;;;;;;;;;;;18.00;78.00;;;;;;5089425;28;19921;-77
2023/07/28 06:12:54;;;;;;;;;;;18.10;78.20;;;;;;5088273;28;19919;-76
2023/07/28 06:15:20;;;;;;;;;;;18.10;78.10;;;;;;5089382;28;19912;-77
2023/07/28 06:17:45;;;;;;;;;;;18.10;78.10;;;;;;5089308;28;19912;-76
2023/07/28 06:20:11;;;;;;;;;;;18.00;78.10;;;;;;5089232;28;20451;-76
2023/07/28 06:22:37;;;;;;;;;;;18.00;78.10;;;;;;5088816;28;20364;-77
2023/07/28 06:25:02;;;;;;;;;;;18.00;78.10;;;;;;5088806;28;20298;-76
2023/07/28 06:27:28;;;;;;;;;;;18.00;78.30;;;;;;5090388;28;19922;-77
2023/07/28 06:29:53;;;;;;;;;;;18.10;78.20;;;;;;5089115;28;19912;-77
2023/07/28 06:32:20;;;;;;;;;;;18.30;78.40;;;;;;5089155;28;20390;-76
2023/07/28 06:34:45;;;;;;;;;;;18.40;78.20;;;;;;5088973;28;20256;-77
2023/07/28 06:37:11;;;;;;;;;;;18.60;78.10;;;;;;5089025;28;19923;-77
2023/07/28 06:39:37;;;;;;;;;;;18.70;78.10;;;;;;5088621;28;20444;-77
2023/07/28 06:42:02;;;;;;;;;;;18.70;78.00;;;;;;5087855;28;20364;-77
2023/07/28 06:44:28;;;;;;;;;;;18.80;78.30;;;;;;5088886;28;20356;-77
2023/07/28 06:46:53;;;;;;;;;;;19.50;78.80;;;;;;5088373;28;19912;-77
2023/07/28 06:49:19;;;;;;;;;;;20.90;77.90;;;;;;5088224;28;20386;-77
2023/07/28 06:51:44;;;;;;;;;;;21.80;76.10;;;;;;5088803;28;20267;-75
2023/07/28 06:54:12;;;;;;;;;;;21.80;75.50;;;;;;5088448;28;19919;-75
2023/07/28 06:56:38;;;;;;;;;;;21.50;75.80;;;;;;5088249;28;20409;-74
2023/07/28 06:59:03;;;;;;;;;;;21.40;76.60;;;;;;5087896;28;19920;-75
2023/07/28 07:01:29;;;;;;;;;;;21.40;76.80;;;;;;5087321;28;20152;-75
2023/07/28 07:03:55;;;;;;;;;;;21.40;76.80;;;;;;5088154;28;20437;-74
2023/07/28 07:06:21;;;;;;;;;;;21.20;76.60;;;;;;5088221;28;19922;-75
2023/07/28 07:08:46;;;;;;;;;;;21.10;76.80;;;;;;5087282;28;19912;-75
2023/07/28 07:11:12;;;;;;;;;;;21.00;76.80;;;;;;5087915;28;19935;-77
2023/07/28 07:13:37;;;;;;;;;;;20.80;77.00;;;;;;5086931;28;19912;-74
2023/07/28 07:16:03;;;;;;;;;;;20.70;77.20;;;;;;5087868;28;20371;-75
2023/07/28 07:18:29;;;;;;;;;;;20.60;77.20;;;;;;5087008;28;19949;-74
2023/07/28 07:20:54;;;;;;;;;;;20.50;77.40;;;;;;5088028;28;19937;-77
2023/07/28 07:23:20;;;;;;;;;;;20.50;77.60;;;;;;5088061;28;19988;-74
2023/07/28 07:25:48;;;;;;;;;;;20.70;77.70;;;;;;5087949;28;19911;-74
2023/07/28 07:28:14;;;;;;;;;;;20.70;77.60;;;;;;5086736;28;19908;-74
2023/07/28 07:30:40;;;;;;;;;;;20.60;77.50;;;;;;5087869;28;20477;-74
2023/07/28 07:33:05;;;;;;;;;;;20.60;77.40;;;;;;5087667;28;20378;-77
2023/07/28 07:35:35;;;;;;;;;;;20.60;77.60;;;;;;5087474;28;19912;-77
2023/07/28 07:38:00;;;;;;;;;;;20.60;77.60;;;;;;5087621;28;19913;-78
2023/07/28 07:40:26;;;;;;;;;;;20.50;77.40;;;;;;5087656;28;20269;-77
2023/07/28 07:42:51;;;;;;;;;;;20.40;77.50;;;;;;5087857;28;19928;-77
2023/07/28 07:45:17;;;;;;;;;;;20.40;77.80;;;;;;5087479;28;19927;-77
2023/07/28 07:47:43;;;;;;;;;;;20.50;77.90;;;;;;5087897;28;20002;-77
2023/07/28 07:50:09;;;;;;;;;;;20.60;77.70;;;;;;5087722;28;19916;-77
2023/07/28 07:52:35;;;;;;;;;;;20.60;77.70;;;;;;5087414;28;19912;-77
2023/07/28 07:55:02;;;;;;;;;;;20.70;77.60;;;;;;5086095;28;19916;-77
2023/07/28 07:57:27;;;;;;;;;;;20.70;77.70;;;;;;5087867;28;19913;-77
2023/07/28 07:59:53;;;;;;;;;;;20.90;77.80;;;;;;5085822;28;20330;-77
2023/07/28 08:02:19;;;;;;;;;;;21.00;77.70;;;;;;5087427;28;19913;-77
2023/07/28 08:04:44;;;;;;;;;;;21.20;77.70;;;;;;5089983;28;19995;-76
2023/07/28 08:07:10;;;;;;;;;;;21.40;77.90;;;;;;5088185;28;20023;-78
2023/07/28 08:09:35;;;;;;;;;;;21.60;77.80;;;;;;5087619;28;20011;-78
2023/07/28 08:12:01;;;;;;;;;;;21.90;77.80;;;;;;5087487;28;20347;-75
2023/07/28 08:14:26;;;;;;;;;;;22.10;77.40;;;;;;5087349;28;19912;-65
2023/07/28 08:16:52;;;;;;;;;;;22.10;77.10;;;;;;5086938;28;19923;-77
2023/07/28 08:19:17;;;;;;;;;;;22.30;77.30;;;;;;5085709;28;20014;-77
2023/07/28 08:21:43;;;;;;;;;;;22.30;77.10;;;;;;5087179;28;19916;-77
2023/07/28 08:24:09;;;;;;;;;;;22.30;77.20;;;;;;5069096;28;19913;-77
2023/07/28 08:26:34;;;;;;;;;;;22.20;77.00;;;;;;5086048;28;19912;-76
2023/07/28 08:29:00;;;;;;;;;;;22.00;77.10;;;;;;5087174;28;20549;-77
2023/07/28 08:31:25;;;;;;;;;;;21.80;77.20;;;;;;5087199;28;19920;-77
2023/07/28 08:33:51;;;;;;;;;;;21.50;77.20;;;;;;5086901;28;19913;-77
2023/07/28 08:36:16;;;;;;;;;;;21.40;77.50;;;;;;5086981;28;19935;-77
2023/07/28 08:38:42;;;;;;;;;;;21.20;77.70;;;;;;5087434;28;19916;-78
2023/07/28 08:41:08;;;;;;;;;;;21.40;78.30;;;;;;5085393;28;19920;-77
2023/07/28 08:43:33;;;;;;;;;;;22.10;79.80;;;;;;5085770;28;20285;-77
2023/07/28 08:45:59;;;;;;;;;;;23.00;78.30;;;;;;5085734;28;20318;-77
2023/07/28 08:48:24;;;;;;;;;;;23.00;77.00;;;;;;5090470;28;19912;-76
2023/07/28 08:50:50;;;;;;;;;;;22.80;77.00;;;;;;5090337;28;20427;-77
2023/07/28 08:53:17;;;;;;;;;;;22.50;77.20;;;;;;5090585;28;19961;-77
2023/07/28 08:55:42;;;;;;;;;;;22.40;77.50;;;;;;5090230;28;19953;-77
2023/07/28 08:58:21;;;;;;;;;;;22.40;77.70;;;;;;5090645;28;20352;-77
2023/07/28 09:00:49;;;;;;;;;;;22.30;77.70;;;;;;5088252;28;19973;-77
2023/07/28 09:03:18;;;;;;;;;;;22.20;77.50;;;;;;5073221;28;19982;-76
2023/07/28 09:05:45;;;;;;;;;;;21.90;77.50;;;;;;5092149;28;19908;-79
2023/07/28 09:08:14;;;;;;;;;;;21.70;77.50;;;;;;5091481;28;19912;-78
2023/07/28 09:10:42;;;;;;;;;;;21.40;77.70;;;;;;5091797;28;19961;-78
2023/07/28 09:13:12;;;;;;;;;;;21.20;77.70;;;;;;5087300;28;20386;-77
2023/07/28 09:15:37;;;;;;;;;;;21.10;77.90;;;;;;5088545;28;19919;-78
2023/07/28 09:18:03;;;;;;;;;;;21.00;78.00;;;;;;5092121;28;19908;-78
2023/07/28 09:20:35;;;;;;;;;;;21.10;78.50;;;;;;5091978;28;19969;-79
2023/07/28 09:23:01;;;;;;;;;;;22.00;80.20;;;;;;5091674;28;19997;-78
2023/07/28 09:25:28;;;;;;;;;;;23.80;80.70;;;;;;5091760;28;19911;-78
2023/07/28 09:27:54;;;;;;;;;;;25.50;79.80;;;;;;5089945;28;19995;-78
2023/07/28 09:30:21;;;;;;;;;;;26.30;78.10;;;;;;5089540;28;20002;-76
2023/07/28 09:32:48;;;;;;;;;;;27.00;78.40;;;;;;5091380;28;19908;-77
2023/07/28 09:35:14;;;;;;;;;;;28.10;78.50;;;;;;5090868;28;19908;-76
2023/07/28 09:37:41;;;;;;;;;;;28.80;78.10;;;;;;5090729;28;19961;-76
2023/07/28 09:40:11;;;;;;;;;;;29.20;77.90;;;;;;5090813;28;20261;-76
2023/07/28 09:42:37;;;;;;;;;;;29.80;78.40;;;;;;5092224;28;20003;-76
2023/07/28 09:45:05;;;;;;;;;;;30.40;78.30;;;;;;5092202;28;19916;-76
2023/07/28 09:47:31;;;;;;;;;;;30.80;78.40;;;;;;5090868;28;19914;-77
2023/07/28 09:49:58;;;;;;;;;;;31.20;78.70;;;;;;5090665;28;19912;-77
2023/07/28 09:52:24;;;;;;;;;;;31.40;78.40;;;;;;5090667;28;19915;-76
2023/07/28 09:54:54;;;;;;;;;;;31.30;78.80;;;;;;5090671;28;19915;-76
2023/07/28 09:57:20;;;;;;;;;;;31.30;79.40;;;;;;5090120;28;19969;-75
2023/07/28 09:59:47;;;;;;;;;;;31.40;79.50;;;;;;5090237;28;20007;-75
2023/07/28 10:02:12;;;;;;;;;;;31.80;79.90;;;;;;5090066;28;19924;-72
2023/07/28 10:04:39;;;;;;;;;;;32.20;79.60;;;;;;5088160;28;19926;-74
2023/07/28 10:07:05;;;;;;;;;;;32.20;79.30;;;;;;5089419;28;20449;-73
2023/07/28 10:09:33;;;;;;;;;;;32.10;79.80;;;;;;5089133;28;19908;-75
2023/07/28 10:11:59;;;;;;;;;;;32.20;80.50;;;;;;5089797;28;19923;-75
2023/07/28 10:14:30;;;;;;;;;;;32.50;80.50;;;;;;5089558;28;19908;-75
2023/07/28 10:16:57;;;;;;;;;;;32.70;80.10;;;;;;5090014;28;20298;-75
2023/07/28 10:19:24;;;;;;;;;;;32.80;79.60;;;;;;5089606;28;19908;-75
2023/07/28 10:21:58;;;;;;;;;;;32.50;80.10;;;;;;5088175;28;19908;-74
2023/07/28 10:24:44;;;;;;;;;;;32.30;80.40;;;;;;5085868;28;19965;-74
2023/07/28 10:27:09;;;;;;;;;;;32.30;81.40;;;;;;5087737;28;19918;-74
2023/07/28 10:29:37;;;;;;;;;;;32.30;80.60;;;;;;5088756;28;19983;-73
2023/07/28 10:32:03;;;;;;;;;;;32.20;80.50;;;;;;5089126;28;19908;-74
2023/07/28 10:34:28;;;;;;;;;;;32.30;80.90;;;;;;5088679;28;19942;-73
2023/07/28 10:36:58;;;;;;;;;;;32.50;80.90;;;;;;5088715;28;20368;-74
2023/07/28 10:39:24;;;;;;;;;;;32.10;79.90;;;;;;5086819;28;19908;-76
2023/07/28 10:42:03;;;;;;;;;;;31.80;80.60;;;;;;5088908;28;19935;-76
2023/07/28 10:44:29;;;;;;;;;;;31.60;80.60;;;;;;5087156;28;19965;-75
2023/07/28 10:46:55;;;;;;;;;;;31.20;80.60;;;;;;5088582;28;20340;-75
2023/07/28 10:49:20;;;;;;;;;;;30.80;80.70;;;;;;5087529;28;19923;-75
2023/07/28 10:51:46;;;;;;;;;;;30.60;80.50;;;;;;5088089;28;19945;-76
2023/07/28 10:54:15;;;;;;;;;;;30.10;80.30;;;;;;5088328;28;19911;-75
2023/07/28 10:56:41;;;;;;;;;;;29.70;80.20;;;;;;5086224;28;19912;-75
2023/07/28 10:59:06;;;;;;;;;;;29.20;79.90;;;;;;5088087;28;19980;-75
2023/07/28 11:01:39;;;;;;;;;;;28.90;79.60;;;;;;5087966;28;19928;-75
2023/07/28 11:04:15;;;;;;;;;;;28.40;79.30;;;;;;5085961;28;19912;-77
2023/07/28 11:06:42;;;;;;;;;;;27.90;79.80;;;;;;5086187;28;19916;-77
2023/07/28 11:09:09;;;;;;;;;;;28.20;81.20;;;;;;5087875;28;19919;-76
2023/07/28 11:11:39;;;;;;;;;;;28.50;80.20;;;;;;5088394;28;19946;-77
2023/07/28 11:14:05;;;;;;;;;;;28.40;79.70;;;;;;5086942;28;19919;-78
2023/07/28 11:16:32;;;;;;;;;;;28.50;79.50;;;;;;5088724;28;20014;-75
2023/07/28 11:19:02;;;;;;;;;;;28.30;78.90;;;;;;5087758;28;20360;-78
2023/07/28 11:21:28;;;;;;;;;;;27.90;78.50;;;;;;5091848;28;19915;-75
2023/07/28 11:23:53;;;;;;;;;;;27.90;79.30;;;;;;5089575;28;19908;-78
2023/07/28 11:26:19;;;;;;;;;;;28.50;80.10;;;;;;5089271;28;19919;-78
2023/07/28 11:28:46;;;;;;;;;;;28.90;79.70;;;;;;5088159;28;19912;-78
2023/07/28 11:31:11;;;;;;;;;;;29.10;79.90;;;;;;5088817;28;19912;-77
2023/07/28 11:33:37;;;;;;;;;;;29.00;79.00;;;;;;5089256;28;19919;-76
2023/07/28 11:36:02;;;;;;;;;;;28.90;78.80;;;;;;5089046;28;20386;-77
2023/07/28 11:38:29;;;;;;;;;;;28.80;78.80;;;;;;5088657;28;19915;-76
2023/07/28 11:40:54;;;;;;;;;;;28.80;78.60;;;;;;5087315;28;19916;-77
2023/07/28 11:43:22;;;;;;;;;;;28.60;78.10;;;;;;5086782;28;19919;-77
2023/07/28 11:45:48;;;;;;;;;;;28.30;77.80;;;;;;5088323;28;19908;-77
2023/07/28 11:48:15;;;;;;;;;;;27.90;78.00;;;;;;5088461;28;19912;-74
2023/07/28 11:50:41;;;;;;;;;;;27.70;78.30;;;;;;5088892;28;20327;-76
2023/07/28 11:53:08;;;;;;;;;;;27.60;78.50;;;;;;5087137;28;19943;-76
2023/07/28 11:55:34;;;;;;;;;;;27.50;78.40;;;;;;5089441;28;19992;-81
2023/07/28 11:58:01;;;;;;;;;;;27.30;78.20;;;;;;5089459;28;19908;-80
2023/07/28 12:00:34;;;;;;;;;;;27.10;78.00;;;;;;5079627;28;19936;-77
2023/07/28 12:03:10;;;;;;;;;;;27.00;78.30;;;;;;5067717;28;19992;-77
2023/07/28 12:05:37;;;;;;;;;;;27.00;78.60;;;;;;5070251;28;19942;-79
2023/07/28 12:08:03;;;;;;;;;;;26.90;78.50;;;;;;5069567;28;19909;-77
2023/07/28 12:10:29;;;;;;;;;;;26.70;78.20;;;;;;5068282;28;19912;-78
2023/07/28 12:12:54;;;;;;;;;;;26.50;78.00;;;;;;5066716;28;19908;-75
2023/07/28 12:15:21;;;;;;;;;;;26.40;78.40;;;;;;5068313;28;19952;-79
2023/07/28 12:18:05;;;;;;;;;;;26.50;78.50;;;;;;5085632;28;19930;-76
2023/07/28 12:20:38;;;;;;;;;;;26.50;78.30;;;;;;5088487;28;20396;-78
2023/07/28 12:23:04;;;;;;;;;;;26.40;77.90;;;;;;5091988;28;19908;-78
2023/07/28 12:25:30;;;;;;;;;;;26.40;78.10;;;;;;5091320;28;19912;-78
2023/07/28 12:27:56;;;;;;;;;;;26.70;78.50;;;;;;5092351;28;20502;-78
2023/07/28 12:30:21;;;;;;;;;;;27.00;78.50;;;;;;5090655;28;20368;-77
2023/07/28 12:32:47;;;;;;;;;;;27.50;79.10;;;;;;5092394;28;20393;-79
2023/07/28 12:35:13;;;;;;;;;;;27.90;78.70;;;;;;5092069;28;19916;-76
2023/07/28 12:37:38;;;;;;;;;;;27.80;77.80;;;;;;5090578;28;19912;-77
2023/07/28 12:40:05;;;;;;;;;;;27.40;77.00;;;;;;5093024;28;19965;-77
2023/07/28 12:42:31;;;;;;;;;;;27.00;77.20;;;;;;5092948;28;19919;-78
2023/07/28 12:44:57;;;;;;;;;;;26.80;78.10;;;;;;5092433;28;19908;-76
2023/07/28 12:47:23;;;;;;;;;;;27.00;78.40;;;;;;5091107;28;19999;-76
2023/07/28 12:49:48;;;;;;;;;;;27.20;78.20;;;;;;5092245;28;20344;-78
2023/07/28 12:52:15;;;;;;;;;;;27.40;78.30;;;;;;5092578;28;20430;-78
2023/07/28 12:54:42;;;;;;;;;;;27.50;77.90;;;;;;5089414;28;19923;-77
2023/07/28 12:57:09;;;;;;;;;;;27.40;77.50;;;;;;5073371;28;19913;-77
2023/07/28 12:59:35;;;;;;;;;;;27.20;77.60;;;;;;5071691;28;19919;-77
2023/07/28 13:02:01;;;;;;;;;;;27.00;77.60;;;;;;5071962;28;19928;-76
2023/07/28 13:04:26;;;;;;;;;;;26.90;77.60;;;;;;5071766;28;19951;-77
2023/07/28 13:06:52;;;;;;;;;;;26.80;77.80;;;;;;5070519;28;19999;-77
2023/07/28 13:09:18;;;;;;;;;;;26.80;77.60;;;;;;5071787;28;19919;-78
2023/07/28 13:11:43;;;;;;;;;;;26.60;77.10;;;;;;5071781;28;19912;-81
2023/07/28 13:14:09;;;;;;;;;;;26.30;76.80;;;;;;5071129;28;19936;-79
2023/07/28 13:16:36;;;;;;;;;;;25.90;77.00;;;;;;5071438;28;19995;-72
2023/07/28 13:19:01;;;;;;;;;;;25.70;77.50;;;;;;5072274;28;20330;-76
2023/07/28 13:21:27;;;;;;;;;;;25.60;77.80;;;;;;5071391;28;19916;-75
2023/07/28 13:23:52;;;;;;;;;;;25.70;78.00;;;;;;5070899;28;19927;-77
2023/07/28 13:26:18;;;;;;;;;;;26.00;78.20;;;;;;5069142;28;19974;-75
2023/07/28 13:28:46;;;;;;;;;;;26.30;78.20;;;;;;5070464;28;20249;-77
2023/07/28 13:31:13;;;;;;;;;;;26.40;77.70;;;;;;5070215;28;19943;-79
2023/07/28 13:33:38;;;;;;;;;;;26.30;77.40;;;;;;5070230;28;19947;-79
2023/07/28 13:36:07;;;;;;;;;;;26.30;77.70;;;;;;5071131;28;20293;-79
2023/07/28 13:38:32;;;;;;;;;;;26.50;78.00;;;;;;5069307;28;19912;-79
2023/07/28 13:40:58;;;;;;;;;;;26.70;77.70;;;;;;5087192;28;19916;-80
2023/07/28 13:43:23;;;;;;;;;;;26.70;77.10;;;;;;5091020;28;19912;-79
2023/07/28 13:45:49;;;;;;;;;;;26.40;76.90;;;;;;5091244;28;20362;-79
2023/07/28 13:48:14;;;;;;;;;;;26.20;77.00;;;;;;5089964;28;20319;-81
2023/07/28 13:50:40;;;;;;;;;;;26.10;77.00;;;;;;5084949;28;20403;-77
2023/07/28 13:53:05;;;;;;;;;;;25.80;76.90;;;;;;5091085;28;19953;-78
2023/07/28 13:55:31;;;;;;;;;;;25.60;77.20;;;;;;5089704;28;19921;-79
2023/07/28 13:57:56;;;;;;;;;;;25.60;77.50;;;;;;5091374;28;19923;-79
2023/07/28 14:00:22;;;;;;;;;;;25.60;77.40;;;;;;5090541;28;19932;-78
2023/07/28 14:02:48;;;;;;;;;;;25.70;77.50;;;;;;5089705;28;20282;-76
2023/07/28 14:05:13;;;;;;;;;;;25.70;77.40;;;;;;5090199;28;19912;-76
2023/07/28 14:07:39;;;;;;;;;;;25.70;77.10;;;;;;5090497;28;19919;-76
2023/07/28 14:10:05;;;;;;;;;;;25.70;77.10;;;;;;5090152;28;20510;-76